Time,TemperatureF,DewpointF,PressureIn,WindDirection,WindDirectionDegrees,WindSpeedMPH,WindSpeedGustMPH,Humidity,HourlyPrecipIn,Conditions,Clouds,dailyrainin,SoftwareType,DateUTC
2013-07-15 00:07:00,54.9,54.3,30.03,WNW,292,1.7,-999.0,98,-99.99,,,0.00,Acu-Link.com,2013-07-15 06:07:00,
2013-07-15 00:23:00,54.9,54.3,30.03,NNE,22,2.2,-999.0,98,-99.99,,,0.00,Acu-Link.com,2013-07-15 06:23:00,
2013-07-15 00:38:00,55.8,55.2,30.03,NE,45,2.7,-999.0,98,-99.99,,,0.00,Acu-Link.com,2013-07-15 06:38:00,
2013-07-15 00:53:00,56.1,55.5,30.03,NW,315,2.2,-999.0,98,-99.99,,,0.00,Acu-Link.com,2013-07-15 06:53:00,
2013-07-15 01:09:00,55.2,54.6,30.05,NE,45,0.0,-999.0,98,-99.99,,,0.00,Acu-Link.com,2013-07-15 07:09:00,
2013-07-15 01:24:00,54.5,53.9,30.04,West,270,0.0,-999.0,98,-99.99,,,0.00,Acu-Link.com,2013-07-15 07:24:00,
2013-07-15 01:39:00,54.0,53.4,30.03,SSW,202,0.0,-999.0,98,-99.99,,,0.00,Acu-Link.com,2013-07-15 07:39:00,
2013-07-15 01:54:00,53.6,53.0,30.03,SW,225,0.0,-999.0,98,-99.99,,,0.00,Acu-Link.com,2013-07-15 07:54:00,
2013-07-15 02:10:00,53.2,52.6,30.03,ENE,67,1.7,-999.0,98,-99.99,,,0.00,Acu-Link.com,2013-07-15 08:10:00,
2013-07-15 02:26:00,52.7,52.2,30.02,NNE,22,0.0,-999.0,98,-99.99,,,0.00,Acu-Link.com,2013-07-15 08:26:00,
2013-07-15 02:41:00,52.7,52.2,30.01,North,0,0.0,-999.0,98,-99.99,,,0.00,Acu-Link.com,2013-07-15 08:41:00,
2013-07-15 02:56:00,52.2,51.7,30.02,SW,225,0.0,-999.0,98,-99.99,,,0.00,Acu-Link.com,2013-07-15 08:56:00,
2013-07-15 03:11:00,51.3,50.8,30.01,WNW,292,0.0,-999.0,98,-99.99,,,0.00,Acu-Link.com,2013-07-15 09:11:00,
2013-07-15 03:26:00,51.6,51.1,30.01,NNE,22,2.2,-999.0,98,-99.99,,,0.00,Acu-Link.com,2013-07-15 09:26:00,
2013-07-15 03:41:00,51.4,50.9,30.01,South,180,0.0,-999.0,98,-99.99,,,0.00,Acu-Link.com,2013-07-15 09:41:00,
2013-07-15 03:57:00,51.1,50.6,30.01,NNE,22,0.0,-999.0,98,-99.99,,,0.00,Acu-Link.com,2013-07-15 09:57:00,
2013-07-15 04:12:00,50.7,50.2,30.02,ESE,112,0.0,-999.0,98,-99.99,,,0.00,Acu-Link.com,2013-07-15 10:12:00,
2013-07-15 04:27:00,50.2,49.7,30.02,NNE,22,0.0,-999.0,98,-99.99,,,0.00,Acu-Link.com,2013-07-15 10:27:00,
2013-07-15 04:42:00,49.5,49.0,30.02,NE,45,0.0,-999.0,98,-99.99,,,0.00,Acu-Link.com,2013-07-15 10:42:00,
2013-07-15 04:57:00,49.1,48.6,30.02,SSW,202,0.0,-999.0,98,-99.99,,,0.00,Acu-Link.com,2013-07-15 10:57:00,
2013-07-15 05:13:00,48.4,47.9,30.02,NW,315,0.0,-999.0,98,-99.99,,,0.00,Acu-Link.com,2013-07-15 11:13:00,
2013-07-15 05:28:00,48.4,47.9,30.02,ESE,112,0.0,-999.0,98,-99.99,,,0.00,Acu-Link.com,2013-07-15 11:28:00,
2013-07-15 05:44:00,48.2,47.7,30.02,North,0,2.2,-999.0,98,-99.99,,,0.00,Acu-Link.com,2013-07-15 11:44:00,
2013-07-15 05:59:00,47.8,47.3,30.03,WNW,292,1.1,-999.0,98,-99.99,,,0.00,Acu-Link.com,2013-07-15 11:59:00,
2013-07-15 06:14:00,48.4,47.9,30.04,North,0,0.0,-999.0,98,-99.99,,,0.00,Acu-Link.com,2013-07-15 12:14:00,
2013-07-15 06:29:00,51.6,51.1,30.02,ENE,67,2.2,-999.0,98,-99.99,,,0.00,Acu-Link.com,2013-07-15 12:29:00,
2013-07-15 06:45:00,52.9,52.4,30.03,NNE,22,3.7,-999.0,98,-99.99,,,0.00,Acu-Link.com,2013-07-15 12:45:00,
2013-07-15 07:00:00,56.1,55.5,30.03,NNE,22,6.3,-999.0,98,-99.99,,,0.00,Acu-Link.com,2013-07-15 13:00:00,
2013-07-15 07:15:00,56.5,55.9,30.03,North,0,3.7,-999.0,98,-99.99,,,0.00,Acu-Link.com,2013-07-15 13:15:00,
2013-07-15 07:30:00,60.4,59.8,30.03,NE,45,3.2,-999.0,98,-99.99,,,0.00,Acu-Link.com,2013-07-15 13:30:00,
2013-07-15 07:46:00,59.4,58.8,30.03,East,90,1.7,-999.0,98,-99.99,,,0.00,Acu-Link.com,2013-07-15 13:46:00,
2013-07-15 08:01:00,60.8,56.3,30.04,North,0,4.7,-999.0,85,-99.99,,,0.00,Acu-Link.com,2013-07-15 14:01:00,
2013-07-15 08:16:00,60.8,54.2,30.03,NNE,22,5.3,-999.0,79,-99.99,,,0.00,Acu-Link.com,2013-07-15 14:16:00,
2013-07-15 08:31:00,60.3,57.0,30.02,NE,45,2.7,-999.0,89,-99.99,,,0.00,Acu-Link.com,2013-07-15 14:31:00,
2013-07-15 08:46:00,63.0,56.4,30.02,ENE,67,2.7,-999.0,79,-99.99,,,0.00,Acu-Link.com,2013-07-15 14:46:00,
2013-07-15 09:02:00,68.9,58.3,30.03,ENE,67,3.2,-999.0,69,-99.99,,,0.00,Acu-Link.com,2013-07-15 15:02:00,
2013-07-15 09:32:00,67.6,59.0,30.02,ESE,112,3.2,-999.0,74,-99.99,,,0.00,Acu-Link.com,2013-07-15 15:32:00,
2013-07-15 09:47:00,68.0,59.0,30.02,ENE,67,4.7,-999.0,73,-99.99,,,0.00,Acu-Link.com,2013-07-15 15:47:00,
2013-07-15 10:33:00,69.3,58.3,30.01,ENE,67,4.2,-999.0,68,-99.99,,,0.00,Acu-Link.com,2013-07-15 16:33:00,
2013-07-15 11:19:00,69.3,57.0,29.99,ESE,112,2.7,-999.0,65,-99.99,,,0.00,Acu-Link.com,2013-07-15 17:19:00,
2013-07-15 11:34:00,70.9,58.1,30.00,NE,45,3.7,-999.0,64,-99.99,,,0.00,Acu-Link.com,2013-07-15 17:34:00,
2013-07-15 11:49:00,72.3,58.5,29.98,NE,45,4.2,-999.0,62,-99.99,,,0.00,Acu-Link.com,2013-07-15 17:49:00,
2013-07-15 12:04:00,73.0,59.2,29.97,NE,45,5.8,-999.0,62,-99.99,,,0.00,Acu-Link.com,2013-07-15 18:04:00,
2013-07-15 12:19:00,73.6,60.2,29.97,East,90,4.2,-999.0,63,-99.99,,,0.00,Acu-Link.com,2013-07-15 18:19:00,
2013-07-15 12:34:00,75.2,58.9,29.95,East,90,2.2,-999.0,57,-99.99,,,0.00,Acu-Link.com,2013-07-15 18:34:00,
2013-07-15 13:05:00,78.3,58.7,29.92,ENE,67,3.7,-999.0,51,-99.99,,,0.00,Acu-Link.com,2013-07-15 19:05:00,
2013-07-15 13:20:00,78.1,59.0,29.92,ENE,67,2.7,-999.0,52,-99.99,,,0.00,Acu-Link.com,2013-07-15 19:20:00,
2013-07-15 13:35:00,79.3,57.3,29.90,NE,45,4.7,-999.0,47,-99.99,,,0.00,Acu-Link.com,2013-07-15 19:35:00,
2013-07-15 13:50:00,81.3,60.9,29.90,ENE,67,7.3,-999.0,50,-99.99,,,0.00,Acu-Link.com,2013-07-15 19:50:00,
2013-07-15 14:06:00,77.2,58.7,29.89,NE,45,14.0,-999.0,53,-99.99,,,0.00,Acu-Link.com,2013-07-15 20:06:00,
2013-07-15 14:21:00,77.4,57.3,29.91,SE,135,16.6,-999.0,50,-99.99,,,0.00,Acu-Link.com,2013-07-15 20:21:00,
2013-07-15 14:36:00,71.1,57.9,29.93,East,90,13.5,-999.0,63,-99.99,,,0.00,Acu-Link.com,2013-07-15 20:36:00,
2013-07-15 14:51:00,67.8,57.3,29.92,NE,45,10.9,-999.0,69,-99.99,,,0.00,Acu-Link.com,2013-07-15 20:51:00,
2013-07-15 15:06:00,64.6,60.0,29.91,East,90,7.8,-999.0,85,-99.99,,,0.00,Acu-Link.com,2013-07-15 21:06:00,
2013-07-15 15:22:00,63.9,59.0,29.91,East,90,5.8,-999.0,84,-99.99,,,0.00,Acu-Link.com,2013-07-15 21:22:00,
2013-07-15 15:37:00,64.0,58.7,29.89,ESE,112,5.3,-999.0,83,-99.99,,,0.00,Acu-Link.com,2013-07-15 21:37:00,
2013-07-15 16:08:00,65.8,57.3,29.89,ESE,112,4.7,-999.0,74,-99.99,,,0.00,Acu-Link.com,2013-07-15 22:08:00,
2013-07-15 16:23:00,66.9,58.0,29.88,ESE,112,5.8,-999.0,73,-99.99,,,0.00,Acu-Link.com,2013-07-15 22:23:00,
2013-07-15 16:38:00,68.5,57.9,29.89,ENE,67,4.2,-999.0,69,-99.99,,,0.00,Acu-Link.com,2013-07-15 22:38:00,
2013-07-15 16:53:00,76.8,58.4,29.88,ENE,67,4.7,-999.0,53,-99.99,,,0.00,Acu-Link.com,2013-07-15 22:53:00,
2013-07-15 17:09:00,74.1,56.4,29.88,ESE,112,3.7,-999.0,54,-99.99,,,0.00,Acu-Link.com,2013-07-15 23:09:00,
2013-07-15 17:40:00,71.1,57.4,29.89,NE,45,13.0,-999.0,62,-99.99,,,0.00,Acu-Link.com,2013-07-15 23:40:00,
2013-07-15 17:55:00,66.6,54.9,29.91,NNE,22,15.0,-999.0,66,-99.99,,,0.00,Acu-Link.com,2013-07-15 23:55:00,
2013-07-15 18:25:00,61.9,59.2,29.92,NNW,337,6.3,-999.0,91,-99.99,,,0.00,Acu-Link.com,2013-07-16 00:25:00,
2013-07-15 19:25:00,59.0,58.4,29.93,NE,45,0.0,-999.0,98,-99.99,,,0.02,Acu-Link.com,2013-07-16 01:25:00,
2013-07-15 19:41:00,58.5,57.9,29.93,SW,225,0.0,-999.0,98,-99.99,,,0.02,Acu-Link.com,2013-07-16 01:41:00,
2013-07-15 19:56:00,58.1,57.5,29.93,SSE,157,0.0,-999.0,98,-99.99,,,0.02,Acu-Link.com,2013-07-16 01:56:00,
2013-07-15 20:11:00,57.6,57.0,29.94,SW,225,0.0,-999.0,98,-99.99,,,0.02,Acu-Link.com,2013-07-16 02:11:00,
2013-07-15 20:26:00,57.4,56.8,29.95,West,270,0.0,-999.0,98,-99.99,,,0.02,Acu-Link.com,2013-07-16 02:26:00,
2013-07-15 20:41:00,57.0,56.4,29.94,West,270,0.0,-999.0,98,-99.99,,,0.02,Acu-Link.com,2013-07-16 02:41:00,
2013-07-15 20:57:00,56.8,56.2,29.96,SW,225,0.0,-999.0,98,-99.99,,,0.02,Acu-Link.com,2013-07-16 02:57:00,
2013-07-15 21:12:00,55.9,55.3,29.95,NW,315,0.0,-999.0,98,-99.99,,,0.02,Acu-Link.com,2013-07-16 03:12:00,
2013-07-15 21:43:00,55.9,55.3,29.97,NNW,337,2.2,-999.0,98,-99.99,,,0.02,Acu-Link.com,2013-07-16 03:43:00,
2013-07-15 21:58:00,55.8,55.2,29.98,NNE,22,2.7,-999.0,98,-99.99,,,0.02,Acu-Link.com,2013-07-16 03:58:00,
2013-07-15 22:13:00,55.4,54.8,29.97,North,0,0.0,-999.0,98,-99.99,,,0.02,Acu-Link.com,2013-07-16 04:13:00,
2013-07-15 22:28:00,54.5,53.9,29.98,NW,315,0.0,-999.0,98,-99.99,,,0.02,Acu-Link.com,2013-07-16 04:28:00,
2013-07-15 22:44:00,54.5,53.9,29.98,NNE,22,2.7,-999.0,98,-99.99,,,0.02,Acu-Link.com,2013-07-16 04:44:00,
2013-07-15 22:59:00,54.0,53.4,29.98,NW,315,0.0,-999.0,98,-99.99,,,0.02,Acu-Link.com,2013-07-16 04:59:00,
2013-07-15 23:14:00,54.1,53.5,30.00,East,90,1.1,-999.0,98,-99.99,,,0.02,Acu-Link.com,2013-07-16 05:14:00,
2013-07-15 23:29:00,54.0,53.4,29.99,NNW,337,0.0,-999.0,98,-99.99,,,0.02,Acu-Link.com,2013-07-16 05:29:00,
2013-07-15 23:45:00,53.8,53.2,29.98,NNE,22,2.7,-999.0,98,-99.99,,,0.02,Acu-Link.com,2013-07-16 05:45:00,